sensor_id;sensor_type;location;lat;lon;timestamp;P1;durP1;ratioP1;P2;durP2;ratioP2
16977;SDS011;8605;52.548;4.918;2023-07-31T00:04:14;7.97;;;1.92;;
16977;SDS011;8605;52.548;4.918;2023-07-31T00:09:17;4.37;;;1.83;;
16977;SDS011;8605;52.548;4.918;2023-07-31T00:14:22;6.17;;;1.80;;
16977;SDS011;8605;52.548;4.918;2023-07-31T00:19:25;7.07;;;2.78;;
16977;SDS011;8605;52.548;4.918;2023-07-31T00:24:28;6.30;;;2.75;;
16977;SDS011;8605;52.548;4.918;2023-07-31T00:29:32;10.00;;;3.38;;
16977;SDS011;8605;52.548;4.918;2023-07-31T00:34:35;10.60;;;3.28;;
16977;SDS011;8605;52.548;4.918;2023-07-31T00:39:39;10.70;;;2.92;;
16977;SDS011;8605;52.548;4.918;2023-07-31T00:44:44;7.05;;;2.70;;
16977;SDS011;8605;52.548;4.918;2023-07-31T00:49:47;6.97;;;3.03;;
16977;SDS011;8605;52.548;4.918;2023-07-31T00:54:50;12.37;;;3.27;;
16977;SDS011;8605;52.548;4.918;2023-07-31T00:59:55;6.87;;;2.97;;
16977;SDS011;8605;52.548;4.918;2023-07-31T01:04:57;6.27;;;3.03;;
16977;SDS011;8605;52.548;4.918;2023-07-31T01:10:02;8.50;;;2.80;;
16977;SDS011;8605;52.548;4.918;2023-07-31T01:15:10;6.43;;;2.80;;
16977;SDS011;8605;52.548;4.918;2023-07-31T01:20:15;8.25;;;3.63;;
16977;SDS011;8605;52.548;4.918;2023-07-31T01:25:26;8.97;;;4.00;;
16977;SDS011;8605;52.548;4.918;2023-07-31T01:30:41;14.75;;;4.45;;
16977;SDS011;8605;52.548;4.918;2023-07-31T01:35:46;13.85;;;4.30;;
16977;SDS011;8605;52.548;4.918;2023-07-31T01:40:52;7.77;;;3.33;;
16977;SDS011;8605;52.548;4.918;2023-07-31T01:45:56;5.00;;;2.38;;
16977;SDS011;8605;52.548;4.918;2023-07-31T01:51:00;10.00;;;3.00;;
16977;SDS011;8605;52.548;4.918;2023-07-31T01:56:03;11.50;;;3.97;;
16977;SDS011;8605;52.548;4.918;2023-07-31T02:01:09;15.73;;;4.90;;
16977;SDS011;8605;52.548;4.918;2023-07-31T02:06:13;5.88;;;2.80;;
16977;SDS011;8605;52.548;4.918;2023-07-31T02:11:17;9.53;;;3.10;;
16977;SDS011;8605;52.548;4.918;2023-07-31T02:16:21;7.78;;;3.65;;
16977;SDS011;8605;52.548;4.918;2023-07-31T02:21:24;10.67;;;4.23;;
16977;SDS011;8605;52.548;4.918;2023-07-31T02:26:27;23.93;;;5.80;;
16977;SDS011;8605;52.548;4.918;2023-07-31T02:31:32;14.88;;;5.88;;
16977;SDS011;8605;52.548;4.918;2023-07-31T02:36:35;13.07;;;5.47;;
16977;SDS011;8605;52.548;4.918;2023-07-31T02:41:38;14.73;;;5.50;;
16977;SDS011;8605;52.548;4.918;2023-07-31T02:46:43;15.35;;;5.28;;
16977;SDS011;8605;52.548;4.918;2023-07-31T02:51:46;14.63;;;5.82;;
16977;SDS011;8605;52.548;4.918;2023-07-31T02:56:49;14.00;;;5.22;;
16977;SDS011;8605;52.548;4.918;2023-07-31T03:01:53;19.35;;;5.45;;
16977;SDS011;8605;52.548;4.918;2023-07-31T03:06:56;16.23;;;6.07;;
16977;SDS011;8605;52.548;4.918;2023-07-31T03:12:00;21.27;;;6.70;;
16977;SDS011;8605;52.548;4.918;2023-07-31T03:17:04;17.83;;;6.07;;
16977;SDS011;8605;52.548;4.918;2023-07-31T03:22:08;17.90;;;6.00;;
16977;SDS011;8605;52.548;4.918;2023-07-31T03:27:11;18.98;;;5.95;;
16977;SDS011;8605;52.548;4.918;2023-07-31T03:32:15;13.33;;;5.80;;
16977;SDS011;8605;52.548;4.918;2023-07-31T03:37:18;17.05;;;5.43;;
16977;SDS011;8605;52.548;4.918;2023-07-31T03:42:21;20.73;;;6.40;;
16977;SDS011;8605;52.548;4.918;2023-07-31T03:47:26;14.75;;;5.72;;
16977;SDS011;8605;52.548;4.918;2023-07-31T03:52:29;17.37;;;5.67;;
16977;SDS011;8605;52.548;4.918;2023-07-31T03:57:32;16.65;;;5.80;;
16977;SDS011;8605;52.548;4.918;2023-07-31T04:02:36;15.63;;;5.43;;
16977;SDS011;8605;52.548;4.918;2023-07-31T04:07:39;18.73;;;5.70;;
16977;SDS011;8605;52.548;4.918;2023-07-31T04:12:42;22.63;;;5.97;;
16977;SDS011;8605;52.548;4.918;2023-07-31T04:17:47;19.88;;;5.30;;
16977;SDS011;8605;52.548;4.918;2023-07-31T04:22:50;18.63;;;5.10;;
16977;SDS011;8605;52.548;4.918;2023-07-31T04:27:53;17.52;;;5.82;;
16977;SDS011;8605;52.548;4.918;2023-07-31T04:32:58;22.00;;;6.00;;
16977;SDS011;8605;52.548;4.918;2023-07-31T04:38:01;20.75;;;5.80;;
16977;SDS011;8605;52.548;4.918;2023-07-31T04:43:04;14.60;;;4.95;;
16977;SDS011;8605;52.548;4.918;2023-07-31T04:48:08;13.73;;;4.97;;
16977;SDS011;8605;52.548;4.918;2023-07-31T04:53:11;13.20;;;4.40;;
16977;SDS011;8605;52.548;4.918;2023-07-31T04:58:14;10.10;;;4.20;;
16977;SDS011;8605;52.548;4.918;2023-07-31T05:03:19;8.02;;;3.00;;
16977;SDS011;8605;52.548;4.918;2023-07-31T05:08:22;7.50;;;1.93;;
16977;SDS011;8605;52.548;4.918;2023-07-31T05:13:25;4.80;;;2.00;;
16977;SDS011;8605;52.548;4.918;2023-07-31T05:18:29;5.25;;;1.65;;
16977;SDS011;8605;52.548;4.918;2023-07-31T05:23:32;3.40;;;1.30;;
16977;SDS011;8605;52.548;4.918;2023-07-31T05:28:35;2.67;;;1.33;;
16977;SDS011;8605;52.548;4.918;2023-07-31T05:33:40;1.77;;;0.80;;
16977;SDS011;8605;52.548;4.918;2023-07-31T05:38:43;2.72;;;0.90;;
16977;SDS011;8605;52.548;4.918;2023-07-31T05:43:46;1.17;;;0.65;;
16977;SDS011;8605;52.548;4.918;2023-07-31T05:48:51;1.98;;;0.90;;
16977;SDS011;8605;52.548;4.918;2023-07-31T05:53:53;2.67;;;0.93;;
16977;SDS011;8605;52.548;4.918;2023-07-31T05:58:56;3.60;;;1.70;;
16977;SDS011;8605;52.548;4.918;2023-07-31T06:04:01;1.95;;;1.13;;
16977;SDS011;8605;52.548;4.918;2023-07-31T06:09:05;1.90;;;0.63;;
16977;SDS011;8605;52.548;4.918;2023-07-31T06:14:08;1.50;;;1.02;;
16977;SDS011;8605;52.548;4.918;2023-07-31T06:19:13;3.93;;;1.03;;
16977;SDS011;8605;52.548;4.918;2023-07-31T06:24:16;5.87;;;1.80;;
16977;SDS011;8605;52.548;4.918;2023-07-31T06:29:22;3.50;;;1.30;;
16977;SDS011;8605;52.548;4.918;2023-07-31T06:34:26;6.28;;;1.88;;
16977;SDS011;8605;52.548;4.918;2023-07-31T06:39:29;5.72;;;1.67;;
16977;SDS011;8605;52.548;4.918;2023-07-31T06:44:32;7.32;;;2.22;;
16977;SDS011;8605;52.548;4.918;2023-07-31T06:49:36;6.47;;;2.38;;
16977;SDS011;8605;52.548;4.918;2023-07-31T06:54:40;7.40;;;1.80;;
16977;SDS011;8605;52.548;4.918;2023-07-31T06:59:43;9.75;;;2.90;;
16977;SDS011;8605;52.548;4.918;2023-07-31T07:04:48;7.90;;;2.08;;
16977;SDS011;8605;52.548;4.918;2023-07-31T07:09:51;4.90;;;2.30;;
16977;SDS011;8605;52.548;4.918;2023-07-31T07:14:54;9.05;;;2.50;;
16977;SDS011;8605;52.548;4.918;2023-07-31T07:20:00;6.37;;;1.70;;
16977;SDS011;8605;52.548;4.918;2023-07-31T07:25:05;4.93;;;2.05;;
16977;SDS011;8605;52.548;4.918;2023-07-31T07:30:09;4.22;;;1.75;;
16977;SDS011;8605;52.548;4.918;2023-07-31T07:35:14;6.88;;;1.70;;
16977;SDS011;8605;52.548;4.918;2023-07-31T07:40:17;8.00;;;1.93;;
16977;SDS011;8605;52.548;4.918;2023-07-31T07:45:20;5.65;;;1.75;;
16977;SDS011;8605;52.548;4.918;2023-07-31T07:50:24;7.65;;;2.20;;
16977;SDS011;8605;52.548;4.918;2023-07-31T07:55:27;6.20;;;2.05;;
16977;SDS011;8605;52.548;4.918;2023-07-31T08:00:30;10.63;;;2.92;;
16977;SDS011;8605;52.548;4.918;2023-07-31T08:05:35;9.90;;;3.00;;
16977;SDS011;8605;52.548;4.918;2023-07-31T08:10:38;5.15;;;2.42;;
16977;SDS011;8605;52.548;4.918;2023-07-31T08:15:41;6.63;;;2.30;;
16977;SDS011;8605;52.548;4.918;2023-07-31T08:20:45;7.10;;;1.90;;
16977;SDS011;8605;52.548;4.918;2023-07-31T08:25:49;12.18;;;2.50;;
16977;SDS011;8605;52.548;4.918;2023-07-31T08:30:52;4.37;;;2.70;;
16977;SDS011;8605;52.548;4.918;2023-07-31T08:35:57;7.53;;;3.00;;
16977;SDS011;8605;52.548;4.918;2023-07-31T08:41:00;7.23;;;2.30;;
16977;SDS011;8605;52.548;4.918;2023-07-31T08:46:05;13.13;;;2.47;;
16977;SDS011;8605;52.548;4.918;2023-07-31T08:51:10;6.40;;;2.50;;
16977;SDS011;8605;52.548;4.918;2023-07-31T08:56:13;6.07;;;1.95;;
16977;SDS011;8605;52.548;4.918;2023-07-31T09:01:18;7.23;;;2.13;;
16977;SDS011;8605;52.548;4.918;2023-07-31T09:06:23;7.87;;;2.07;;
16977;SDS011;8605;52.548;4.918;2023-07-31T09:11:27;8.10;;;2.70;;
16977;SDS011;8605;52.548;4.918;2023-07-31T09:16:30;9.20;;;2.30;;
16977;SDS011;8605;52.548;4.918;2023-07-31T09:21:38;10.82;;;3.13;;
16977;SDS011;8605;52.548;4.918;2023-07-31T09:26:50;7.03;;;2.17;;
16977;SDS011;8605;52.548;4.918;2023-07-31T09:31:56;8.90;;;2.47;;
16977;SDS011;8605;52.548;4.918;2023-07-31T09:37:02;13.73;;;3.00;;
16977;SDS011;8605;52.548;4.918;2023-07-31T09:42:05;10.63;;;3.25;;
16977;SDS011;8605;52.548;4.918;2023-07-31T09:47:20;9.53;;;3.27;;
16977;SDS011;8605;52.548;4.918;2023-07-31T09:52:27;12.55;;;3.17;;
16977;SDS011;8605;52.548;4.918;2023-07-31T09:57:30;7.87;;;2.67;;
16977;SDS011;8605;52.548;4.918;2023-07-31T10:02:34;7.07;;;2.10;;
16977;SDS011;8605;52.548;4.918;2023-07-31T10:07:39;7.47;;;2.30;;
16977;SDS011;8605;52.548;4.918;2023-07-31T10:12:45;3.73;;;1.67;;
16977;SDS011;8605;52.548;4.918;2023-07-31T10:17:48;5.33;;;2.10;;
16977;SDS011;8605;52.548;4.918;2023-07-31T10:22:54;5.37;;;1.90;;
16977;SDS011;8605;52.548;4.918;2023-07-31T10:27:57;6.93;;;2.72;;
16977;SDS011;8605;52.548;4.918;2023-07-31T10:33:00;7.07;;;1.85;;
16977;SDS011;8605;52.548;4.918;2023-07-31T10:38:12;10.85;;;2.88;;
16977;SDS011;8605;52.548;4.918;2023-07-31T10:43:23;10.83;;;2.53;;
16977;SDS011;8605;52.548;4.918;2023-07-31T10:48:32;6.27;;;2.20;;
16977;SDS011;8605;52.548;4.918;2023-07-31T10:53:37;7.22;;;1.85;;
16977;SDS011;8605;52.548;4.918;2023-07-31T10:58:43;9.07;;;2.67;;
16977;SDS011;8605;52.548;4.918;2023-07-31T11:03:48;6.32;;;2.15;;
16977;SDS011;8605;52.548;4.918;2023-07-31T11:08:55;7.65;;;1.92;;
16977;SDS011;8605;52.548;4.918;2023-07-31T11:13:58;7.57;;;2.28;;
16977;SDS011;8605;52.548;4.918;2023-07-31T11:19:01;5.00;;;2.38;;
16977;SDS011;8605;52.548;4.918;2023-07-31T11:24:06;11.35;;;2.10;;
16977;SDS011;8605;52.548;4.918;2023-07-31T11:29:10;9.38;;;2.30;;
16977;SDS011;8605;52.548;4.918;2023-07-31T11:34:13;9.60;;;3.10;;
16977;SDS011;8605;52.548;4.918;2023-07-31T11:39:18;10.50;;;2.95;;
16977;SDS011;8605;52.548;4.918;2023-07-31T11:44:21;6.33;;;2.63;;
16977;SDS011;8605;52.548;4.918;2023-07-31T11:49:29;8.43;;;2.83;;
16977;SDS011;8605;52.548;4.918;2023-07-31T11:54:36;8.50;;;3.23;;
16977;SDS011;8605;52.548;4.918;2023-07-31T11:59:39;9.35;;;3.25;;
16977;SDS011;8605;52.548;4.918;2023-07-31T12:04:42;6.68;;;2.95;;
16977;SDS011;8605;52.548;4.918;2023-07-31T12:09:53;10.45;;;2.58;;
16977;SDS011;8605;52.548;4.918;2023-07-31T12:14:57;10.00;;;2.40;;
16977;SDS011;8605;52.548;4.918;2023-07-31T12:20:00;7.03;;;2.10;;
16977;SDS011;8605;52.548;4.918;2023-07-31T12:25:05;12.68;;;2.50;;
16977;SDS011;8605;52.548;4.918;2023-07-31T12:35:34;8.90;;;2.50;;
16977;SDS011;8605;52.548;4.918;2023-07-31T12:40:40;10.38;;;2.60;;
16977;SDS011;8605;52.548;4.918;2023-07-31T12:45:44;9.53;;;2.50;;
16977;SDS011;8605;52.548;4.918;2023-07-31T12:50:48;8.88;;;2.25;;
16977;SDS011;8605;52.548;4.918;2023-07-31T12:55:53;6.43;;;2.40;;
16977;SDS011;8605;52.548;4.918;2023-07-31T13:00:56;4.85;;;2.33;;
16977;SDS011;8605;52.548;4.918;2023-07-31T13:05:59;6.55;;;2.67;;
16977;SDS011;8605;52.548;4.918;2023-07-31T13:11:04;6.47;;;2.20;;
16977;SDS011;8605;52.548;4.918;2023-07-31T13:16:07;7.20;;;2.00;;
16977;SDS011;8605;52.548;4.918;2023-07-31T13:21:11;3.80;;;1.95;;
16977;SDS011;8605;52.548;4.918;2023-07-31T13:26:16;8.65;;;2.30;;
16977;SDS011;8605;52.548;4.918;2023-07-31T13:31:19;4.13;;;2.10;;
16977;SDS011;8605;52.548;4.918;2023-07-31T13:36:23;5.63;;;1.80;;
16977;SDS011;8605;52.548;4.918;2023-07-31T13:41:27;3.63;;;1.67;;
16977;SDS011;8605;52.548;4.918;2023-07-31T13:46:31;4.78;;;1.98;;
16977;SDS011;8605;52.548;4.918;2023-07-31T13:51:34;6.38;;;1.92;;
16977;SDS011;8605;52.548;4.918;2023-07-31T13:56:39;4.95;;;1.60;;
16977;SDS011;8605;52.548;4.918;2023-07-31T14:01:43;5.45;;;1.40;;
16977;SDS011;8605;52.548;4.918;2023-07-31T14:06:47;4.82;;;1.73;;
16977;SDS011;8605;52.548;4.918;2023-07-31T14:11:53;4.60;;;1.40;;
16977;SDS011;8605;52.548;4.918;2023-07-31T14:16:56;7.35;;;1.80;;
16977;SDS011;8605;52.548;4.918;2023-07-31T14:21:59;4.60;;;1.48;;
16977;SDS011;8605;52.548;4.918;2023-07-31T14:27:13;6.07;;;1.98;;
16977;SDS011;8605;52.548;4.918;2023-07-31T14:32:16;3.95;;;1.88;;
16977;SDS011;8605;52.548;4.918;2023-07-31T14:37:19;4.32;;;1.75;;
16977;SDS011;8605;52.548;4.918;2023-07-31T14:42:24;8.52;;;2.67;;
16977;SDS011;8605;52.548;4.918;2023-07-31T14:47:27;9.77;;;2.80;;
16977;SDS011;8605;52.548;4.918;2023-07-31T14:52:30;12.48;;;3.17;;
16977;SDS011;8605;52.548;4.918;2023-07-31T14:57:34;7.17;;;2.30;;
16977;SDS011;8605;52.548;4.918;2023-07-31T15:02:37;10.13;;;2.80;;
16977;SDS011;8605;52.548;4.918;2023-07-31T15:07:41;8.10;;;2.28;;
16977;SDS011;8605;52.548;4.918;2023-07-31T15:12:45;9.85;;;2.38;;
16977;SDS011;8605;52.548;4.918;2023-07-31T15:17:48;9.77;;;2.95;;
16977;SDS011;8605;52.548;4.918;2023-07-31T15:22:51;6.93;;;2.33;;
16977;SDS011;8605;52.548;4.918;2023-07-31T15:27:56;5.88;;;2.40;;
16977;SDS011;8605;52.548;4.918;2023-07-31T15:32:59;8.55;;;2.80;;
16977;SDS011;8605;52.548;4.918;2023-07-31T15:38:03;8.50;;;2.87;;
16977;SDS011;8605;52.548;4.918;2023-07-31T15:43:07;8.38;;;3.13;;
16977;SDS011;8605;52.548;4.918;2023-07-31T15:48:10;5.50;;;2.40;;
16977;SDS011;8605;52.548;4.918;2023-07-31T15:53:13;7.53;;;2.40;;
16977;SDS011;8605;52.548;4.918;2023-07-31T15:58:18;6.13;;;2.60;;
16977;SDS011;8605;52.548;4.918;2023-07-31T16:03:21;6.40;;;2.07;;
16977;SDS011;8605;52.548;4.918;2023-07-31T16:08:24;8.33;;;2.30;;
16977;SDS011;8605;52.548;4.918;2023-07-31T16:13:29;5.13;;;2.47;;
16977;SDS011;8605;52.548;4.918;2023-07-31T16:18:32;5.47;;;2.00;;
16977;SDS011;8605;52.548;4.918;2023-07-31T16:23:35;7.23;;;2.13;;
16977;SDS011;8605;52.548;4.918;2023-07-31T16:28:39;7.28;;;2.40;;
16977;SDS011;8605;52.548;4.918;2023-07-31T16:33:42;8.03;;;2.27;;
16977;SDS011;8605;52.548;4.918;2023-07-31T16:38:45;12.10;;;3.10;;
16977;SDS011;8605;52.548;4.918;2023-07-31T16:43:50;8.38;;;3.17;;
16977;SDS011;8605;52.548;4.918;2023-07-31T16:48:53;11.87;;;2.77;;
16977;SDS011;8605;52.548;4.918;2023-07-31T16:53:56;11.70;;;2.35;;
16977;SDS011;8605;52.548;4.918;2023-07-31T16:59:01;10.30;;;3.00;;
16977;SDS011;8605;52.548;4.918;2023-07-31T17:04:04;5.95;;;2.33;;
16977;SDS011;8605;52.548;4.918;2023-07-31T17:09:07;5.20;;;2.17;;
16977;SDS011;8605;52.548;4.918;2023-07-31T17:14:12;9.35;;;2.35;;
16977;SDS011;8605;52.548;4.918;2023-07-31T17:19:17;5.03;;;1.73;;
16977;SDS011;8605;52.548;4.918;2023-07-31T17:24:20;5.70;;;1.70;;
16977;SDS011;8605;52.548;4.918;2023-07-31T17:29:28;8.63;;;2.78;;
16977;SDS011;8605;52.548;4.918;2023-07-31T17:34:31;12.73;;;2.75;;
16977;SDS011;8605;52.548;4.918;2023-07-31T17:39:34;6.90;;;2.53;;
16977;SDS011;8605;52.548;4.918;2023-07-31T17:44:39;5.13;;;1.93;;
16977;SDS011;8605;52.548;4.918;2023-07-31T17:49:42;6.15;;;2.40;;
16977;SDS011;8605;52.548;4.918;2023-07-31T17:54:45;7.33;;;2.10;;
16977;SDS011;8605;52.548;4.918;2023-07-31T17:59:54;7.55;;;2.53;;
16977;SDS011;8605;52.548;4.918;2023-07-31T18:04:57;10.95;;;2.38;;
16977;SDS011;8605;52.548;4.918;2023-07-31T18:10:00;7.47;;;2.13;;
16977;SDS011;8605;52.548;4.918;2023-07-31T18:15:05;7.57;;;1.97;;
16977;SDS011;8605;52.548;4.918;2023-07-31T18:20:09;9.00;;;2.40;;
16977;SDS011;8605;52.548;4.918;2023-07-31T18:25:14;5.77;;;2.20;;
16977;SDS011;8605;52.548;4.918;2023-07-31T18:30:18;6.33;;;1.97;;
16977;SDS011;8605;52.548;4.918;2023-07-31T18:35:21;5.53;;;2.03;;
16977;SDS011;8605;52.548;4.918;2023-07-31T18:40:24;5.30;;;1.77;;
16977;SDS011;8605;52.548;4.918;2023-07-31T18:45:29;5.37;;;2.03;;
16977;SDS011;8605;52.548;4.918;2023-07-31T18:50:32;5.55;;;1.67;;
16977;SDS011;8605;52.548;4.918;2023-07-31T18:55:35;8.23;;;2.07;;
16977;SDS011;8605;52.548;4.918;2023-07-31T19:00:39;5.53;;;1.92;;
16977;SDS011;8605;52.548;4.918;2023-07-31T19:05:42;5.17;;;2.17;;
16977;SDS011;8605;52.548;4.918;2023-07-31T19:10:45;7.77;;;2.43;;
16977;SDS011;8605;52.548;4.918;2023-07-31T19:15:50;8.47;;;2.60;;
16977;SDS011;8605;52.548;4.918;2023-07-31T19:20:55;9.83;;;2.77;;
16977;SDS011;8605;52.548;4.918;2023-07-31T19:25:58;6.23;;;2.50;;
16977;SDS011;8605;52.548;4.918;2023-07-31T19:31:02;9.88;;;2.60;;
16977;SDS011;8605;52.548;4.918;2023-07-31T19:36:05;7.18;;;2.75;;
16977;SDS011;8605;52.548;4.918;2023-07-31T19:41:08;6.38;;;2.63;;
16977;SDS011;8605;52.548;4.918;2023-07-31T19:46:13;8.48;;;2.80;;
16977;SDS011;8605;52.548;4.918;2023-07-31T19:51:16;9.73;;;3.38;;
16977;SDS011;8605;52.548;4.918;2023-07-31T19:56:19;11.93;;;3.03;;
16977;SDS011;8605;52.548;4.918;2023-07-31T20:01:23;7.90;;;3.30;;
16977;SDS011;8605;52.548;4.918;2023-07-31T20:06:26;6.68;;;2.88;;
16977;SDS011;8605;52.548;4.918;2023-07-31T20:11:29;9.85;;;3.00;;
16977;SDS011;8605;52.548;4.918;2023-07-31T20:16:34;7.38;;;2.70;;
16977;SDS011;8605;52.548;4.918;2023-07-31T20:21:42;6.63;;;2.40;;
16977;SDS011;8605;52.548;4.918;2023-07-31T20:26:45;4.95;;;2.08;;
16977;SDS011;8605;52.548;4.918;2023-07-31T20:31:50;8.45;;;2.65;;
16977;SDS011;8605;52.548;4.918;2023-07-31T20:36:53;8.63;;;3.08;;
16977;SDS011;8605;52.548;4.918;2023-07-31T20:41:56;7.90;;;2.42;;
16977;SDS011;8605;52.548;4.918;2023-07-31T20:47:00;8.37;;;2.40;;
16977;SDS011;8605;52.548;4.918;2023-07-31T20:52:03;5.95;;;2.55;;
16977;SDS011;8605;52.548;4.918;2023-07-31T20:57:07;6.65;;;2.83;;
16977;SDS011;8605;52.548;4.918;2023-07-31T21:02:11;12.13;;;3.58;;
16977;SDS011;8605;52.548;4.918;2023-07-31T21:07:14;7.38;;;3.10;;
16977;SDS011;8605;52.548;4.918;2023-07-31T21:12:17;6.57;;;2.87;;
16977;SDS011;8605;52.548;4.918;2023-07-31T21:17:22;7.23;;;2.23;;
16977;SDS011;8605;52.548;4.918;2023-07-31T21:22:25;4.90;;;2.78;;
16977;SDS011;8605;52.548;4.918;2023-07-31T21:27:28;6.53;;;2.40;;
16977;SDS011;8605;52.548;4.918;2023-07-31T21:32:34;11.90;;;3.08;;
16977;SDS011;8605;52.548;4.918;2023-07-31T21:37:37;7.03;;;2.70;;
16977;SDS011;8605;52.548;4.918;2023-07-31T21:42:40;4.68;;;2.25;;
16977;SDS011;8605;52.548;4.918;2023-07-31T21:47:45;7.85;;;3.85;;
16977;SDS011;8605;52.548;4.918;2023-07-31T21:52:48;7.88;;;2.50;;
16977;SDS011;8605;52.548;4.918;2023-07-31T21:57:51;6.07;;;2.60;;
16977;SDS011;8605;52.548;4.918;2023-07-31T22:02:56;4.83;;;2.17;;
16977;SDS011;8605;52.548;4.918;2023-07-31T22:07:59;8.10;;;2.53;;
16977;SDS011;8605;52.548;4.918;2023-07-31T22:13:02;9.63;;;2.70;;
16977;SDS011;8605;52.548;4.918;2023-07-31T22:18:06;8.77;;;3.15;;
16977;SDS011;8605;52.548;4.918;2023-07-31T22:23:09;7.30;;;2.87;;
16977;SDS011;8605;52.548;4.918;2023-07-31T22:28:12;8.32;;;3.33;;
16977;SDS011;8605;52.548;4.918;2023-07-31T22:33:23;7.30;;;2.63;;
16977;SDS011;8605;52.548;4.918;2023-07-31T22:38:26;7.15;;;2.92;;
16977;SDS011;8605;52.548;4.918;2023-07-31T22:43:29;7.67;;;3.13;;
16977;SDS011;8605;52.548;4.918;2023-07-31T22:48:34;9.25;;;2.70;;
16977;SDS011;8605;52.548;4.918;2023-07-31T22:53:37;8.43;;;3.08;;
16977;SDS011;8605;52.548;4.918;2023-07-31T22:58:40;6.27;;;2.83;;
16977;SDS011;8605;52.548;4.918;2023-07-31T23:03:44;8.07;;;2.70;;
16977;SDS011;8605;52.548;4.918;2023-07-31T23:08:47;8.10;;;3.40;;
16977;SDS011;8605;52.548;4.918;2023-07-31T23:13:51;8.23;;;3.50;;
16977;SDS011;8605;52.548;4.918;2023-07-31T23:18:55;8.70;;;3.33;;
16977;SDS011;8605;52.548;4.918;2023-07-31T23:23:59;8.13;;;3.03;;
16977;SDS011;8605;52.548;4.918;2023-07-31T23:29:02;10.37;;;3.23;;
16977;SDS011;8605;52.548;4.918;2023-07-31T23:34:07;8.40;;;3.40;;
16977;SDS011;8605;52.548;4.918;2023-07-31T23:39:09;8.00;;;3.13;;
16977;SDS011;8605;52.548;4.918;2023-07-31T23:44:15;7.37;;;2.90;;
16977;SDS011;8605;52.548;4.918;2023-07-31T23:49:19;7.28;;;3.28;;
16977;SDS011;8605;52.548;4.918;2023-07-31T23:54:22;9.88;;;2.95;;
16977;SDS011;8605;52.548;4.918;2023-07-31T23:59:25;12.55;;;3.28;;
